Tetsuun Maru No.1 — JL6712 — position and weather

sailwx.info

Track history (hours):
 
Tides and Currents Weather Stations Pressure Air Temp Water Temp Dewpoint Dewpoint Depression Visibility Wind Speed Wind Dir Waves Ship Positions

Tetsuun Maru No.1

Last reported at 2017-Dec-15 10:01 UTC. Time now 2017-Dec-15 10:22 UTC.
Position N 33°58' E 130°47'.

Length 76 m; draft 4.2 m.

Type: Cargo ship. MMSI: 431501765.

Date/timePositionNaut miles runAvg speedWind from/ knotsBaromVisibWave heightAir tempDewpointWater temp
2017-Dec-15 10:01N 33°58' E 130°47'713.1
2017-Dec-15 09:30N 33°57' E 130°39'713.0
2017-Dec-15 09:00N 33°56' E 130°32'612.4
2017-Dec-15 08:30N 33°52' E 130°26'713.1
2017-Dec-15 08:00N 33°47' E 130°21'612.5
2017-Dec-15 07:30N 33°42' E 130°16'611.6
2017-Dec-15 07:01N 33°38' E 130°22'2 4.7
2017-Dec-15 06:30N 33°39' E 130°24'0 0.0
2017-Dec-15 06:00N 33°39' E 130°24'1 1.1
2017-Dec-15 05:31N 33°39' E 130°24'611.5
2017-Dec-15 05:01N 33°40' E 130°17'611.4
2017-Dec-15 04:30N 33°45' E 130°19'612.7
2017-Dec-15 04:00N 33°50' E 130°24'1812.1
2017-Dec-15 02:31N 33°58' E 130°44'14 9.5
2017-Dec-15 01:00N 33°58' E 131°01'0 0.0
2017-Dec-15 00:30N 33°58' E 131°01'40 6.6
2017-Dec-14 18:30N 33°46' E 131°46'4412.3
2017-Dec-14 14:58N 33°55' E 132°38'614.2
2017-Dec-14 14:31N 33°59' E 132°44'7212.3
2017-Dec-14 08:41N 34°27' E 134°04'414.1
2017-Dec-14 08:23N 34°26' E 134°09'1613.1
2017-Dec-14 07:12N 34°27' E 134°27'313.2
2017-Dec-14 06:59N 34°28' E 134°30'713.2
2017-Dec-14 06:29N 34°30' E 134°38'613.2
2017-Dec-14 06:00N 34°33' E 134°45'612.9
2017-Dec-14 05:30N 34°35' E 134°52'612.4
2017-Dec-14 05:00N 34°37' E 134°59'510.9
2017-Dec-14 04:30N 34°36' E 135°05'612.6
2017-Dec-14 04:00N 34°37' E 135°13'5 9.6
2017-Dec-14 03:30N 34°41' E 135°17'0 0.0
2017-Dec-14 03:00N 34°41' E 135°17'0 0.0
2017-Dec-14 02:30N 34°41' E 135°17'0 0.6
2017-Dec-14 02:00N 34°41' E 135°17'2 4.5
2017-Dec-14 01:30N 34°40' E 135°14'0 0.0
2017-Dec-14 01:00N 34°40' E 135°14'0 0.0
2017-Dec-14 00:30N 34°40' E 135°14'0 0.0
2017-Dec-14 00:00N 34°40' E 135°14'0 0.0
2017-Dec-13 23:30N 34°40' E 135°14'1 1.3
2017-Dec-13 23:00N 34°40' E 135°15'1 2.5
2017-Dec-13 22:30N 34°38' E 135°15'0 0.0
2017-Dec-13 22:00N 34°38' E 135°15'0 0.0
2017-Dec-13 21:30N 34°38' E 135°15'0 0.0
2017-Dec-13 21:00N 34°38' E 135°15'0 0.0
2017-Dec-13 20:30N 34°38' E 135°15'0 0.0
2017-Dec-13 20:00N 34°38' E 135°15'0 0.0
2017-Dec-13 19:30N 34°38' E 135°15'0 0.0
2017-Dec-13 19:00N 34°38' E 135°15'0 0.0
2017-Dec-13 18:31N 34°38' E 135°15'0 0.0
2017-Dec-13 18:00N 34°38' E 135°15'0 0.1
2017-Dec-13 17:30N 34°38' E 135°15'0 0.0
2017-Dec-13 17:00N 34°38' E 135°15'0 0.1
2017-Dec-13 16:30N 34°38' E 135°15'0 0.0
2017-Dec-13 16:00N 34°38' E 135°15'0 0.0
2017-Dec-13 15:30N 34°38' E 135°15'0 0.0
2017-Dec-13 15:00N 34°38' E 135°15'0 0.0
2017-Dec-13 14:30N 34°38' E 135°15'0 0.3
2017-Dec-13 14:00N 34°38' E 135°15'611.6
2017-Dec-13 13:31N 34°34' E 135°11'612.0
2017-Dec-13 13:00N 34°28' E 135°07'611.5
2017-Dec-13 12:30N 34°24' E 135°04'611.6
2017-Dec-13 12:00N 34°18' E 135°00'510.7
2017-Dec-13 11:30N 34°13' E 134°59'611.6
2017-Dec-13 10:58N 34°07' E 134°58'74 2.5
2017-Dec-12 05:20N 34°06' E 136°27'1212.0
2017-Dec-12 04:19N 34°10' E 136°41'33 8.2
2017-Dec-12 00:19N 34°42' E 136°48'412.7
2017-Dec-12 00:00N 34°46' E 136°47'612.6
2017-Dec-11 23:30N 34°52' E 136°46'612.1
2017-Dec-11 23:00N 34°58' E 136°47'1 1.7
2017-Dec-11 22:30N 34°59' E 136°47'0 0.0
2017-Dec-11 22:00N 34°59' E 136°47'0 0.0
2017-Dec-11 21:30N 34°59' E 136°47'0 0.0
2017-Dec-11 21:00N 34°59' E 136°47'0 0.0
2017-Dec-11 20:30N 34°59' E 136°47'0 0.0
2017-Dec-11 20:00N 34°59' E 136°47'0 0.0
2017-Dec-11 19:30N 34°59' E 136°47'0 0.0
2017-Dec-11 19:00N 34°59' E 136°47'0 0.0
2017-Dec-11 18:30N 34°59' E 136°47'0 0.0
2017-Dec-11 18:00N 34°59' E 136°47'0 0.0
2017-Dec-11 17:30N 34°59' E 136°47'0 0.0
2017-Dec-11 17:00N 34°59' E 136°47'0 0.0
2017-Dec-11 16:30N 34°59' E 136°47'0 0.0
2017-Dec-11 16:00N 34°59' E 136°47'0 0.0
2017-Dec-11 15:30N 34°59' E 136°47'0 0.0
2017-Dec-11 15:00N 34°59' E 136°47'0 0.0
2017-Dec-11 14:30N 34°59' E 136°47'0 0.0
2017-Dec-11 14:00N 34°59' E 136°47'0 0.0
2017-Dec-11 13:30N 34°59' E 136°47'0 0.0
2017-Dec-11 13:00N 34°59' E 136°47'0 0.0
2017-Dec-11 12:30N 34°59' E 136°47'0 0.0
2017-Dec-11 12:00N 34°59' E 136°47'0 0.0
2017-Dec-11 11:30N 34°59' E 136°47'0 0.0
2017-Dec-11 11:00N 34°59' E 136°47'0 0.0
2017-Dec-11 10:30N 34°59' E 136°47'0 0.0
2017-Dec-11 10:00N 34°59' E 136°47'0 0.0
2017-Dec-11 09:30N 34°59' E 136°47'0 0.0
2017-Dec-11 09:00N 34°59' E 136°47'0 0.0
2017-Dec-11 08:30N 34°59' E 136°47'0 0.0
2017-Dec-11 08:00N 34°59' E 136°47'0 0.1
2017-Dec-11 07:30N 34°59' E 136°47'0 0.0
2017-Dec-11 07:00N 34°59' E 136°47'0 0.0
2017-Dec-11 06:30N 34°59' E 136°47'0 0.0
2017-Dec-11 06:00N 34°59' E 136°47'0 0.0
2017-Dec-11 05:30N 34°59' E 136°47'0 0.0
2017-Dec-11 05:00N 34°59' E 136°47'0 0.0
2017-Dec-11 04:30N 34°59' E 136°47'0 0.0
2017-Dec-11 04:00N 34°59' E 136°47'0 0.0
2017-Dec-11 03:30N 34°59' E 136°47'0 0.0
2017-Dec-11 03:00N 34°59' E 136°47'0 0.0
2017-Dec-11 02:30N 34°59' E 136°47'0 0.3
2017-Dec-11 02:01N 34°59' E 136°47'3 5.9
2017-Dec-11 01:30N 35°02' E 136°49'0 0.0
2017-Dec-11 01:00N 35°02' E 136°49'0 0.0
2017-Dec-11 00:30N 35°02' E 136°49'0 0.0
2017-Dec-11 00:00N 35°02' E 136°49'2 5.0
2017-Dec-10 23:30N 34°59' E 136°49'2 3.3
2017-Dec-10 23:00N 34°58' E 136°47'0 0.1
2017-Dec-10 22:30N 34°58' E 136°47'0 0.0
2017-Dec-10 22:00N 34°58' E 136°47'0 0.1
2017-Dec-10 21:30N 34°58' E 136°47'0 0.0
2017-Dec-10 21:00N 34°58' E 136°47'0 0.0
2017-Dec-10 20:30N 34°58' E 136°47'0 0.0
2017-Dec-10 20:00N 34°58' E 136°47'0 0.0
2017-Dec-10 19:30N 34°58' E 136°47'0 0.1
2017-Dec-10 19:00N 34°58' E 136°47'0 0.0
2017-Dec-10 18:30N 34°58' E 136°47'510.1
2017-Dec-10 18:00N 34°53' E 136°47'612.5
2017-Dec-10 17:30N 34°47' E 136°49'255 9.8
2017-Dec-09 15:24N 33°14' E 132°03'512.3
2017-Dec-09 15:00N 33°18' E 131°60'611.5
2017-Dec-09 14:30N 33°23' E 131°56'612.1
2017-Dec-09 13:59N 33°28' E 131°52'612.3
2017-Dec-09 13:30N 33°33' E 131°49'612.3
2017-Dec-09 13:00N 33°38' E 131°45'612.0
2017-Dec-09 12:30N 33°42' E 131°39'612.2
2017-Dec-09 12:00N 33°44' E 131°32'612.6
2017-Dec-09 11:30N 33°47' E 131°25'612.8
2017-Dec-09 11:00N 33°49' E 131°18'612.9
2017-Dec-09 10:30N 33°52' E 131°11'612.8
2017-Dec-09 10:01N 33°55' E 131°04'611.6
2017-Dec-09 09:30N 33°58' E 130°58'510.3
2017-Dec-09 09:00N 33°55' E 130°54'611.3
2017-Dec-09 08:30N 33°58' E 130°48'612.6
2017-Dec-09 08:00N 33°58' E 130°41'612.5
2017-Dec-09 07:30N 33°56' E 130°33'612.0
2017-Dec-09 07:00N 33°53' E 130°27'612.6
2017-Dec-09 06:30N 33°49' E 130°22'612.3
2017-Dec-09 06:00N 33°44' E 130°18'5 9.7
2017-Dec-09 05:30N 33°39' E 130°18'510.3
2017-Dec-09 05:00N 33°39' E 130°24'0 0.3
2017-Dec-09 04:30N 33°39' E 130°24'0 0.0
2017-Dec-09 04:00N 33°39' E 130°24'0 0.0
2017-Dec-09 03:30N 33°39' E 130°24'2 3.8
2017-Dec-09 03:00N 33°38' E 130°22'611.5
2017-Dec-09 02:29N 33°41' E 130°16'612.5
2017-Dec-09 02:00N 33°46' E 130°20'712.9
2017-Dec-09 01:30N 33°51' E 130°25'612.7
2017-Dec-09 01:00N 33°56' E 130°29'611.6
2017-Dec-09 00:30N 33°58' E 130°36'612.2
2017-Dec-09 00:00N 34°02' E 130°42'510.9
2017-Dec-08 23:30N 34°02' E 130°49'510.2
2017-Dec-08 23:00N 33°57' E 130°51'4 8.2
2017-Dec-08 22:30N 33°55' E 130°55'4 7.9
2017-Dec-08 22:00N 33°58' E 130°58'3 7.0
2017-Dec-08 21:30N 33°58' E 131°02'1 2.6
2017-Dec-08 21:00N 33°57' E 131°02'0 0.0
2017-Dec-08 20:30N 33°57' E 131°02'0 0.0
2017-Dec-08 20:00N 33°57' E 131°02'0 0.0
2017-Dec-08 19:30N 33°57' E 131°02'0 0.0
2017-Dec-08 19:00N 33°57' E 131°02'0 0.0
2017-Dec-08 18:30N 33°57' E 131°02'0 0.0
2017-Dec-08 18:00N 33°57' E 131°02'0 0.0
2017-Dec-08 17:30N 33°57' E 131°02'0 0.0
2017-Dec-08 17:00N 33°57' E 131°02'0 0.1
2017-Dec-08 16:30N 33°57' E 131°02'0 0.1
2017-Dec-08 16:00N 33°57' E 131°02'0 0.0
2017-Dec-08 15:30N 33°57' E 131°02'0 0.2
2017-Dec-08 15:00N 33°57' E 131°02'0 0.0
2017-Dec-08 14:30N 33°57' E 131°02'0 0.1
2017-Dec-08 14:00N 33°57' E 131°02'0 0.0
2017-Dec-08 13:30N 33°57' E 131°02'0 0.0
2017-Dec-08 13:00N 33°57' E 131°02'0 0.0
2017-Dec-08 12:30N 33°57' E 131°02'0 0.1
2017-Dec-08 12:00N 33°57' E 131°02'0 0.0
2017-Dec-08 11:30N 33°57' E 131°02'0 0.0
2017-Dec-08 11:00N 33°57' E 131°02'0 0.0
2017-Dec-08 10:30N 33°57' E 131°02'0 0.1
2017-Dec-08 10:00N 33°57' E 131°02'0 0.0
2017-Dec-08 09:30N 33°57' E 131°02'0 0.0
2017-Dec-08 09:00N 33°57' E 131°02'0 0.0
2017-Dec-08 08:30N 33°57' E 131°02'0 0.0
2017-Dec-08 08:00N 33°57' E 131°02'0 0.0
2017-Dec-08 07:30N 33°57' E 131°02'0 0.0
2017-Dec-08 07:00N 33°57' E 131°02'0 0.1
2017-Dec-08 06:30N 33°57' E 131°02'0 0.1
2017-Dec-08 06:00N 33°57' E 131°02'0 0.1
2017-Dec-08 05:30N 33°57' E 131°02'0 0.0
2017-Dec-08 05:00N 33°57' E 131°02'0 0.0
2017-Dec-08 04:30N 33°57' E 131°02'0 0.0
2017-Dec-08 04:00N 33°57' E 131°02'0 0.0
2017-Dec-08 03:30N 33°57' E 131°02'0 0.0
2017-Dec-08 03:00N 33°57' E 131°02'0 0.0
2017-Dec-08 02:30N 33°57' E 131°02'0 0.0
2017-Dec-08 02:00N 33°57' E 131°02'0 0.0
2017-Dec-08 01:30N 33°57' E 131°02'0 0.0
2017-Dec-08 01:00N 33°57' E 131°02'1 1.8
2017-Dec-08 00:31N 33°58' E 131°02'1 1.3
2017-Dec-08 00:00N 33°58' E 131°01'0 0.1
2017-Dec-07 23:30N 33°58' E 131°01'0 0.1
2017-Dec-07 23:00N 33°58' E 131°01'3 6.0
2017-Dec-07 22:30N 33°55' E 131°03'1 2.6
2017-Dec-07 22:00N 33°55' E 131°04'611.4
2017-Dec-07 21:30N 33°53' E 131°11'612.1
2017-Dec-07 21:00N 33°51' E 131°18'612.1
2017-Dec-07 20:30N 33°50' E 131°25'612.0
2017-Dec-07 20:00N 33°48' E 131°32'611.9
2017-Dec-07 19:30N 33°47' E 131°39'611.8
2017-Dec-07 19:00N 33°46' E 131°46'1312.0
2017-Dec-07 17:56N 33°46' E 132°01'613.4
2017-Dec-07 17:28N 33°48' E 132°08'613.1
2017-Dec-07 16:58N 33°50' E 132°16'713.1
2017-Dec-07 16:27N 33°51' E 132°24'712.9
2017-Dec-07 15:52N 33°53' E 132°32'512.2
2017-Dec-07 15:29N 33°55' E 132°38'511.4
2017-Dec-07 15:00N 33°58' E 132°43'7611.3
2017-Dec-07 08:15N 34°26' E 134°09'1311.2
2017-Dec-07 07:03N 34°26' E 134°25'212.8
2017-Dec-07 06:54N 34°27' E 134°27'512.9
2017-Dec-07 06:30N 34°29' E 134°33'713.1
2017-Dec-07 06:00N 34°31' E 134°40'713.5
2017-Dec-07 05:30N 34°34' E 134°48'713.8
2017-Dec-07 05:00N 34°37' E 134°55'612.7
2017-Dec-07 04:30N 34°36' E 135°03'612.9
2017-Dec-07 04:00N 34°37' E 135°11'511.0
2017-Dec-07 03:30N 34°41' E 135°16'1 1.8
2017-Dec-07 03:00N 34°41' E 135°17'0 0.0
2017-Dec-07 02:30N 34°41' E 135°17'0 0.0
2017-Dec-07 02:00N 34°41' E 135°17'1 2.0
2017-Dec-07 01:30N 34°41' E 135°16'0 0.0
2017-Dec-07 01:00N 34°41' E 135°16'0 0.0
2017-Dec-07 00:30N 34°41' E 135°16'2 3.2
2017-Dec-07 00:00N 34°40' E 135°14'0 0.0
2017-Dec-06 23:30N 34°40' E 135°14'1 1.3
2017-Dec-06 23:00N 34°40' E 135°15'1 1.8
2017-Dec-06 22:30N 34°39' E 135°15'0 0.1
2017-Dec-06 22:00N 34°39' E 135°15'0 0.1
2017-Dec-06 21:30N 34°39' E 135°15'0 0.0
2017-Dec-06 21:00N 34°39' E 135°15'  
Track history (hours):
 
Tides and Currents Weather Stations Pressure Air Temp Water Temp Dewpoint Dewpoint Depression Visibility Wind Speed Wind Dir Waves Ship Positions

Tetsuun Maru No.1

Last reported at 2017-Dec-15 10:01 UTC. Time now 2017-Dec-15 10:22 UTC.
Position N 33°58' E 130°47'.

Length 76 m; draft 4.2 m.

Type: Cargo ship. MMSI: 431501765.

Date/timePositionNaut miles runAvg speedWind from/ knotsBaromVisibWave heightAir tempDewpointWater temp
2017-Dec-15 10:01N 33°58' E 130°47'713.1
2017-Dec-15 09:30N 33°57' E 130°39'713.0
2017-Dec-15 09:00N 33°56' E 130°32'612.4
2017-Dec-15 08:30N 33°52' E 130°26'713.1
2017-Dec-15 08:00N 33°47' E 130°21'612.5
2017-Dec-15 07:30N 33°42' E 130°16'611.6
2017-Dec-15 07:01N 33°38' E 130°22'2 4.7
2017-Dec-15 06:30N 33°39' E 130°24'0 0.0
2017-Dec-15 06:00N 33°39' E 130°24'1 1.1
2017-Dec-15 05:31N 33°39' E 130°24'611.5
2017-Dec-15 05:01N 33°40' E 130°17'611.4
2017-Dec-15 04:30N 33°45' E 130°19'612.7
2017-Dec-15 04:00N 33°50' E 130°24'1812.1
2017-Dec-15 02:31N 33°58' E 130°44'14 9.5
2017-Dec-15 01:00N 33°58' E 131°01'0 0.0
2017-Dec-15 00:30N 33°58' E 131°01'40 6.6
2017-Dec-14 18:30N 33°46' E 131°46'4412.3
2017-Dec-14 14:58N 33°55' E 132°38'614.2
2017-Dec-14 14:31N 33°59' E 132°44'7212.3
2017-Dec-14 08:41N 34°27' E 134°04'414.1
2017-Dec-14 08:23N 34°26' E 134°09'1613.1
2017-Dec-14 07:12N 34°27' E 134°27'313.2
2017-Dec-14 06:59N 34°28' E 134°30'713.2
2017-Dec-14 06:29N 34°30' E 134°38'613.2
2017-Dec-14 06:00N 34°33' E 134°45'612.9
2017-Dec-14 05:30N 34°35' E 134°52'612.4
2017-Dec-14 05:00N 34°37' E 134°59'510.9
2017-Dec-14 04:30N 34°36' E 135°05'612.6
2017-Dec-14 04:00N 34°37' E 135°13'5 9.6
2017-Dec-14 03:30N 34°41' E 135°17'0 0.0
2017-Dec-14 03:00N 34°41' E 135°17'0 0.0
2017-Dec-14 02:30N 34°41' E 135°17'0 0.6
2017-Dec-14 02:00N 34°41' E 135°17'2 4.5
2017-Dec-14 01:30N 34°40' E 135°14'0 0.0
2017-Dec-14 01:00N 34°40' E 135°14'0 0.0
2017-Dec-14 00:30N 34°40' E 135°14'0 0.0
2017-Dec-14 00:00N 34°40' E 135°14'0 0.0
2017-Dec-13 23:30N 34°40' E 135°14'1 1.3
2017-Dec-13 23:00N 34°40' E 135°15'1 2.5
2017-Dec-13 22:30N 34°38' E 135°15'0 0.0
2017-Dec-13 22:00N 34°38' E 135°15'0 0.0
2017-Dec-13 21:30N 34°38' E 135°15'0 0.0
2017-Dec-13 21:00N 34°38' E 135°15'0 0.0
2017-Dec-13 20:30N 34°38' E 135°15'0 0.0
2017-Dec-13 20:00N 34°38' E 135°15'0 0.0
2017-Dec-13 19:30N 34°38' E 135°15'0 0.0
2017-Dec-13 19:00N 34°38' E 135°15'0 0.0
2017-Dec-13 18:31N 34°38' E 135°15'0 0.0
2017-Dec-13 18:00N 34°38' E 135°15'0 0.1
2017-Dec-13 17:30N 34°38' E 135°15'0 0.0
2017-Dec-13 17:00N 34°38' E 135°15'0 0.1
2017-Dec-13 16:30N 34°38' E 135°15'0 0.0
2017-Dec-13 16:00N 34°38' E 135°15'0 0.0
2017-Dec-13 15:30N 34°38' E 135°15'0 0.0
2017-Dec-13 15:00N 34°38' E 135°15'0 0.0
2017-Dec-13 14:30N 34°38' E 135°15'0 0.3
2017-Dec-13 14:00N 34°38' E 135°15'611.6
2017-Dec-13 13:31N 34°34' E 135°11'612.0
2017-Dec-13 13:00N 34°28' E 135°07'611.5
2017-Dec-13 12:30N 34°24' E 135°04'611.6
2017-Dec-13 12:00N 34°18' E 135°00'510.7
2017-Dec-13 11:30N 34°13' E 134°59'611.6
2017-Dec-13 10:58N 34°07' E 134°58'74 2.5
2017-Dec-12 05:20N 34°06' E 136°27'1212.0
2017-Dec-12 04:19N 34°10' E 136°41'33 8.2
2017-Dec-12 00:19N 34°42' E 136°48'412.7
2017-Dec-12 00:00N 34°46' E 136°47'612.6
2017-Dec-11 23:30N 34°52' E 136°46'612.1
2017-Dec-11 23:00N 34°58' E 136°47'1 1.7
2017-Dec-11 22:30N 34°59' E 136°47'0 0.0
2017-Dec-11 22:00N 34°59' E 136°47'0 0.0
2017-Dec-11 21:30N 34°59' E 136°47'0 0.0
2017-Dec-11 21:00N 34°59' E 136°47'0 0.0
2017-Dec-11 20:30N 34°59' E 136°47'0 0.0
2017-Dec-11 20:00N 34°59' E 136°47'0 0.0
2017-Dec-11 19:30N 34°59' E 136°47'0 0.0
2017-Dec-11 19:00N 34°59' E 136°47'0 0.0
2017-Dec-11 18:30N 34°59' E 136°47'0 0.0
2017-Dec-11 18:00N 34°59' E 136°47'0 0.0
2017-Dec-11 17:30N 34°59' E 136°47'0 0.0
2017-Dec-11 17:00N 34°59' E 136°47'0 0.0
2017-Dec-11 16:30N 34°59' E 136°47'0 0.0
2017-Dec-11 16:00N 34°59' E 136°47'0 0.0
2017-Dec-11 15:30N 34°59' E 136°47'0 0.0
2017-Dec-11 15:00N 34°59' E 136°47'0 0.0
2017-Dec-11 14:30N 34°59' E 136°47'0 0.0
2017-Dec-11 14:00N 34°59' E 136°47'0 0.0
2017-Dec-11 13:30N 34°59' E 136°47'0 0.0
2017-Dec-11 13:00N 34°59' E 136°47'0 0.0
2017-Dec-11 12:30N 34°59' E 136°47'0 0.0
2017-Dec-11 12:00N 34°59' E 136°47'0 0.0
2017-Dec-11 11:30N 34°59' E 136°47'0 0.0
2017-Dec-11 11:00N 34°59' E 136°47'0 0.0
2017-Dec-11 10:30N 34°59' E 136°47'0 0.0
2017-Dec-11 10:00N 34°59' E 136°47'0 0.0
2017-Dec-11 09:30N 34°59' E 136°47'0 0.0
2017-Dec-11 09:00N 34°59' E 136°47'0 0.0
2017-Dec-11 08:30N 34°59' E 136°47'0 0.0
2017-Dec-11 08:00N 34°59' E 136°47'0 0.1
2017-Dec-11 07:30N 34°59' E 136°47'0 0.0
2017-Dec-11 07:00N 34°59' E 136°47'0 0.0
2017-Dec-11 06:30N 34°59' E 136°47'0 0.0
2017-Dec-11 06:00N 34°59' E 136°47'0 0.0
2017-Dec-11 05:30N 34°59' E 136°47'0 0.0
2017-Dec-11 05:00N 34°59' E 136°47'0 0.0
2017-Dec-11 04:30N 34°59' E 136°47'0 0.0
2017-Dec-11 04:00N 34°59' E 136°47'0 0.0
2017-Dec-11 03:30N 34°59' E 136°47'0 0.0
2017-Dec-11 03:00N 34°59' E 136°47'0 0.0
2017-Dec-11 02:30N 34°59' E 136°47'0 0.3
2017-Dec-11 02:01N 34°59' E 136°47'3 5.9
2017-Dec-11 01:30N 35°02' E 136°49'0 0.0
2017-Dec-11 01:00N 35°02' E 136°49'0 0.0
2017-Dec-11 00:30N 35°02' E 136°49'0 0.0
2017-Dec-11 00:00N 35°02' E 136°49'2 5.0
2017-Dec-10 23:30N 34°59' E 136°49'2 3.3
2017-Dec-10 23:00N 34°58' E 136°47'0 0.1
2017-Dec-10 22:30N 34°58' E 136°47'0 0.0
2017-Dec-10 22:00N 34°58' E 136°47'0 0.1
2017-Dec-10 21:30N 34°58' E 136°47'0 0.0
2017-Dec-10 21:00N 34°58' E 136°47'0 0.0
2017-Dec-10 20:30N 34°58' E 136°47'0 0.0
2017-Dec-10 20:00N 34°58' E 136°47'0 0.0
2017-Dec-10 19:30N 34°58' E 136°47'0 0.1
2017-Dec-10 19:00N 34°58' E 136°47'0 0.0
2017-Dec-10 18:30N 34°58' E 136°47'510.1
2017-Dec-10 18:00N 34°53' E 136°47'612.5
2017-Dec-10 17:30N 34°47' E 136°49'255 9.8
2017-Dec-09 15:24N 33°14' E 132°03'512.3
2017-Dec-09 15:00N 33°18' E 131°60'611.5
2017-Dec-09 14:30N 33°23' E 131°56'612.1
2017-Dec-09 13:59N 33°28' E 131°52'612.3
2017-Dec-09 13:30N 33°33' E 131°49'612.3
2017-Dec-09 13:00N 33°38' E 131°45'612.0
2017-Dec-09 12:30N 33°42' E 131°39'612.2
2017-Dec-09 12:00N 33°44' E 131°32'612.6
2017-Dec-09 11:30N 33°47' E 131°25'612.8
2017-Dec-09 11:00N 33°49' E 131°18'612.9
2017-Dec-09 10:30N 33°52' E 131°11'612.8
2017-Dec-09 10:01N 33°55' E 131°04'611.6
2017-Dec-09 09:30N 33°58' E 130°58'510.3
2017-Dec-09 09:00N 33°55' E 130°54'611.3
2017-Dec-09 08:30N 33°58' E 130°48'612.6
2017-Dec-09 08:00N 33°58' E 130°41'612.5
2017-Dec-09 07:30N 33°56' E 130°33'612.0
2017-Dec-09 07:00N 33°53' E 130°27'612.6
2017-Dec-09 06:30N 33°49' E 130°22'612.3
2017-Dec-09 06:00N 33°44' E 130°18'5 9.7
2017-Dec-09 05:30N 33°39' E 130°18'510.3
2017-Dec-09 05:00N 33°39' E 130°24'0 0.3
2017-Dec-09 04:30N 33°39' E 130°24'0 0.0
2017-Dec-09 04:00N 33°39' E 130°24'0 0.0
2017-Dec-09 03:30N 33°39' E 130°24'2 3.8
2017-Dec-09 03:00N 33°38' E 130°22'611.5
2017-Dec-09 02:29N 33°41' E 130°16'612.5
2017-Dec-09 02:00N 33°46' E 130°20'712.9
2017-Dec-09 01:30N 33°51' E 130°25'612.7
2017-Dec-09 01:00N 33°56' E 130°29'611.6
2017-Dec-09 00:30N 33°58' E 130°36'612.2
2017-Dec-09 00:00N 34°02' E 130°42'510.9
2017-Dec-08 23:30N 34°02' E 130°49'510.2
2017-Dec-08 23:00N 33°57' E 130°51'4 8.2
2017-Dec-08 22:30N 33°55' E 130°55'4 7.9
2017-Dec-08 22:00N 33°58' E 130°58'3 7.0
2017-Dec-08 21:30N 33°58' E 131°02'1 2.6
2017-Dec-08 21:00N 33°57' E 131°02'0 0.0
2017-Dec-08 20:30N 33°57' E 131°02'0 0.0
2017-Dec-08 20:00N 33°57' E 131°02'0 0.0
2017-Dec-08 19:30N 33°57' E 131°02'0 0.0
2017-Dec-08 19:00N 33°57' E 131°02'0 0.0
2017-Dec-08 18:30N 33°57' E 131°02'0 0.0
2017-Dec-08 18:00N 33°57' E 131°02'0 0.0
2017-Dec-08 17:30N 33°57' E 131°02'0 0.0
2017-Dec-08 17:00N 33°57' E 131°02'0 0.1
2017-Dec-08 16:30N 33°57' E 131°02'0 0.1
2017-Dec-08 16:00N 33°57' E 131°02'0 0.0
2017-Dec-08 15:30N 33°57' E 131°02'0 0.2
2017-Dec-08 15:00N 33°57' E 131°02'0 0.0
2017-Dec-08 14:30N 33°57' E 131°02'0 0.1
2017-Dec-08 14:00N 33°57' E 131°02'0 0.0
2017-Dec-08 13:30N 33°57' E 131°02'0 0.0
2017-Dec-08 13:00N 33°57' E 131°02'0 0.0
2017-Dec-08 12:30N 33°57' E 131°02'0 0.1
2017-Dec-08 12:00N 33°57' E 131°02'0 0.0
2017-Dec-08 11:30N 33°57' E 131°02'0 0.0
2017-Dec-08 11:00N 33°57' E 131°02'0 0.0
2017-Dec-08 10:30N 33°57' E 131°02'0 0.1
2017-Dec-08 10:00N 33°57' E 131°02'0 0.0
2017-Dec-08 09:30N 33°57' E 131°02'0 0.0
2017-Dec-08 09:00N 33°57' E 131°02'0 0.0
2017-Dec-08 08:30N 33°57' E 131°02'0 0.0
2017-Dec-08 08:00N 33°57' E 131°02'0 0.0
2017-Dec-08 07:30N 33°57' E 131°02'0 0.0
2017-Dec-08 07:00N 33°57' E 131°02'0 0.1
2017-Dec-08 06:30N 33°57' E 131°02'0 0.1
2017-Dec-08 06:00N 33°57' E 131°02'0 0.1
2017-Dec-08 05:30N 33°57' E 131°02'0 0.0
2017-Dec-08 05:00N 33°57' E 131°02'0 0.0
2017-Dec-08 04:30N 33°57' E 131°02'0 0.0
2017-Dec-08 04:00N 33°57' E 131°02'0 0.0
2017-Dec-08 03:30N 33°57' E 131°02'0 0.0
2017-Dec-08 03:00N 33°57' E 131°02'0 0.0
2017-Dec-08 02:30N 33°57' E 131°02'0 0.0
2017-Dec-08 02:00N 33°57' E 131°02'0 0.0
2017-Dec-08 01:30N 33°57' E 131°02'0 0.0
2017-Dec-08 01:00N 33°57' E 131°02'1 1.8
2017-Dec-08 00:31N 33°58' E 131°02'1 1.3
2017-Dec-08 00:00N 33°58' E 131°01'0 0.1
2017-Dec-07 23:30N 33°58' E 131°01'0 0.1
2017-Dec-07 23:00N 33°58' E 131°01'3 6.0
2017-Dec-07 22:30N 33°55' E 131°03'1 2.6
2017-Dec-07 22:00N 33°55' E 131°04'611.4
2017-Dec-07 21:30N 33°53' E 131°11'612.1
2017-Dec-07 21:00N 33°51' E 131°18'612.1
2017-Dec-07 20:30N 33°50' E 131°25'612.0
2017-Dec-07 20:00N 33°48' E 131°32'611.9
2017-Dec-07 19:30N 33°47' E 131°39'611.8
2017-Dec-07 19:00N 33°46' E 131°46'1312.0
2017-Dec-07 17:56N 33°46' E 132°01'613.4
2017-Dec-07 17:28N 33°48' E 132°08'613.1
2017-Dec-07 16:58N 33°50' E 132°16'713.1
2017-Dec-07 16:27N 33°51' E 132°24'712.9
2017-Dec-07 15:52N 33°53' E 132°32'512.2
2017-Dec-07 15:29N 33°55' E 132°38'511.4
2017-Dec-07 15:00N 33°58' E 132°43'7611.3
2017-Dec-07 08:15N 34°26' E 134°09'1311.2
2017-Dec-07 07:03N 34°26' E 134°25'212.8
2017-Dec-07 06:54N 34°27' E 134°27'512.9
2017-Dec-07 06:30N 34°29' E 134°33'713.1
2017-Dec-07 06:00N 34°31' E 134°40'713.5
2017-Dec-07 05:30N 34°34' E 134°48'713.8
2017-Dec-07 05:00N 34°37' E 134°55'612.7
2017-Dec-07 04:30N 34°36' E 135°03'612.9
2017-Dec-07 04:00N 34°37' E 135°11'511.0
2017-Dec-07 03:30N 34°41' E 135°16'1 1.8
2017-Dec-07 03:00N 34°41' E 135°17'0 0.0
2017-Dec-07 02:30N 34°41' E 135°17'0 0.0
2017-Dec-07 02:00N 34°41' E 135°17'1 2.0
2017-Dec-07 01:30N 34°41' E 135°16'0 0.0
2017-Dec-07 01:00N 34°41' E 135°16'0 0.0
2017-Dec-07 00:30N 34°41' E 135°16'2 3.2
2017-Dec-07 00:00N 34°40' E 135°14'0 0.0
2017-Dec-06 23:30N 34°40' E 135°14'1 1.3
2017-Dec-06 23:00N 34°40' E 135°15'1 1.8
2017-Dec-06 22:30N 34°39' E 135°15'0 0.1
2017-Dec-06 22:00N 34°39' E 135°15'0 0.1
2017-Dec-06 21:30N 34°39' E 135°15'0 0.0
2017-Dec-06 21:00N 34°39' E 135°15'  

Dump ship's entire track history